createdAt,value
2022-12-08T00:01:37.900Z,6.03
2022-12-08T00:04:08.507Z,6.90
2022-12-08T00:06:58.799Z,6.30
2022-12-08T00:09:38.172Z,6.97
2022-12-08T00:12:11.635Z,5.70
2022-12-08T00:14:46.730Z,6.27
2022-12-08T00:17:18.625Z,5.90
2022-12-08T00:19:50.865Z,5.23
2022-12-08T00:22:20.950Z,5.13
2022-12-08T00:24:51.160Z,5.30
2022-12-08T00:27:20.041Z,4.80
2022-12-08T00:29:51.218Z,5.03
2022-12-08T00:32:20.525Z,4.77
2022-12-08T00:34:49.964Z,4.50
2022-12-08T00:37:19.258Z,6.03
2022-12-08T00:39:49.873Z,4.90
2022-12-08T00:42:19.759Z,5.57
2022-12-08T00:44:51.717Z,5.37
2022-12-08T00:47:24.878Z,7.00
2022-12-08T00:49:55.237Z,5.67
2022-12-08T00:52:25.315Z,6.87
2022-12-08T00:54:55.103Z,6.00
2022-12-08T00:57:24.803Z,5.70
2022-12-08T00:59:56.046Z,6.40
2022-12-08T01:02:25.715Z,5.67
2022-12-08T01:04:55.181Z,5.30
2022-12-08T01:07:24.612Z,5.47
2022-12-08T01:09:54.771Z,5.47
2022-12-08T01:12:24.726Z,6.00
2022-12-08T01:15:00.637Z,6.10
2022-12-08T01:17:31.059Z,4.87
2022-12-08T01:20:00.565Z,5.70
2022-12-08T01:22:29.602Z,5.60
2022-12-08T01:25:00.074Z,5.70
2022-12-08T01:27:29.897Z,4.70
2022-12-08T01:30:01.188Z,5.00
2022-12-08T01:32:31.785Z,5.67
2022-12-08T01:35:01.817Z,5.70
2022-12-08T01:37:31.850Z,5.40
2022-12-08T01:40:01.974Z,4.10
2022-12-08T01:42:34.808Z,4.30
2022-12-08T01:45:08.246Z,4.67
2022-12-08T01:47:47.456Z,5.57
2022-12-08T01:50:22.086Z,4.47
2022-12-08T01:52:56.423Z,5.90
2022-12-08T01:55:35.031Z,5.40
2022-12-08T01:58:13.004Z,4.30
2022-12-08T02:00:44.780Z,5.47
2022-12-08T02:03:20.576Z,5.47
2022-12-08T02:05:50.786Z,5.50
2022-12-08T02:08:21.599Z,4.83
2022-12-08T02:10:53.511Z,5.47
2022-12-08T02:13:26.415Z,5.17
2022-12-08T02:16:09.614Z,5.50
2022-12-08T02:19:29.193Z,5.50
2022-12-08T02:22:02.294Z,4.63
2022-12-08T02:24:41.362Z,5.30
2022-12-08T02:27:43.100Z,5.23
2022-12-08T02:30:27.085Z,5.70
2022-12-08T02:33:54.562Z,5.70
2022-12-08T02:36:30.699Z,6.23
2022-12-08T02:39:12.953Z,6.47
2022-12-08T02:41:54.060Z,4.70
2022-12-08T02:44:32.480Z,5.13
2022-12-08T02:47:12.788Z,7.03
2022-12-08T02:49:43.952Z,6.50
2022-12-08T02:52:43.315Z,5.33
2022-12-08T02:55:27.648Z,7.03
2022-12-08T02:58:41.089Z,6.80
2022-12-08T03:01:36.124Z,6.47
2022-12-08T03:04:18.599Z,5.93
2022-12-08T03:07:00.354Z,6.53
2022-12-08T03:09:41.607Z,6.23
2022-12-08T03:12:20.550Z,6.60
2022-12-08T03:14:55.220Z,6.80
2022-12-08T03:17:30.075Z,5.50
2022-12-08T03:20:03.642Z,6.03
2022-12-08T03:22:35.832Z,6.63
2022-12-08T03:25:07.989Z,6.70
2022-12-08T03:27:38.691Z,6.57
2022-12-08T03:30:13.326Z,6.33
2022-12-08T03:32:52.890Z,6.80
2022-12-08T03:35:28.545Z,6.17
2022-12-08T03:38:08.343Z,6.27
2022-12-08T03:40:37.794Z,5.70
2022-12-08T03:43:08.397Z,5.17
2022-12-08T03:45:37.828Z,5.27
2022-12-08T03:48:08.489Z,5.03
2022-12-08T03:50:38.941Z,5.73
2022-12-08T03:53:09.952Z,5.20
2022-12-08T03:55:41.038Z,4.90
2022-12-08T03:58:10.379Z,5.10
2022-12-08T04:00:39.036Z,5.00
2022-12-08T04:03:09.444Z,4.50
2022-12-08T04:05:38.287Z,3.63
2022-12-08T04:08:10.179Z,5.60
2022-12-08T04:10:40.495Z,5.37
2022-12-08T04:13:10.402Z,3.60
2022-12-08T04:15:40.355Z,2.90
2022-12-08T04:18:10.951Z,4.07
2022-12-08T04:20:43.053Z,3.13
2022-12-08T04:23:14.567Z,2.53
2022-12-08T04:25:44.524Z,2.93
2022-12-08T04:28:14.110Z,3.53
2022-12-08T04:30:44.313Z,2.60
2022-12-08T04:33:14.159Z,2.30
2022-12-08T04:35:44.699Z,2.30
2022-12-08T04:38:14.751Z,2.20
2022-12-08T04:40:44.620Z,2.47
2022-12-08T04:43:14.205Z,2.53
2022-12-08T04:45:44.644Z,2.00
2022-12-08T04:48:14.235Z,2.60
2022-12-08T04:50:46.694Z,2.63
2022-12-08T04:53:18.396Z,1.83
2022-12-08T04:55:48.735Z,2.67
2022-12-08T04:58:21.043Z,4.17
2022-12-08T05:00:51.243Z,2.40
2022-12-08T05:03:28.088Z,2.10
2022-12-08T05:06:01.307Z,2.50
2022-12-08T05:08:33.740Z,2.33
2022-12-08T05:11:09.318Z,2.27
2022-12-08T05:13:49.030Z,2.40
2022-12-08T05:16:19.483Z,2.43
2022-12-08T05:18:51.581Z,1.97
2022-12-08T05:21:21.458Z,2.27
2022-12-08T05:23:53.789Z,2.47
2022-12-08T05:26:22.861Z,2.50
2022-12-08T05:28:51.926Z,3.03
2022-12-08T05:31:21.263Z,2.40
2022-12-08T05:33:53.313Z,2.90
2022-12-08T05:36:22.944Z,2.80
2022-12-08T05:38:54.408Z,2.83
2022-12-08T05:41:24.007Z,2.33
2022-12-08T05:43:54.283Z,2.93
2022-12-08T05:46:25.754Z,2.97
2022-12-08T05:48:55.677Z,2.70
2022-12-08T05:51:27.293Z,2.70
2022-12-08T05:53:59.352Z,2.93
2022-12-08T05:56:28.718Z,3.03
2022-12-08T05:58:59.049Z,3.20
2022-12-08T06:01:32.576Z,3.20
2022-12-08T06:04:05.199Z,3.30
2022-12-08T06:06:37.252Z,3.67
2022-12-08T06:09:09.329Z,3.60
2022-12-08T06:11:39.302Z,3.40
2022-12-08T06:14:14.134Z,2.77
2022-12-08T06:16:44.838Z,3.60
2022-12-08T06:19:14.801Z,3.40
2022-12-08T06:21:44.944Z,3.37
2022-12-08T06:24:19.347Z,3.93
2022-12-08T06:26:50.032Z,3.60
2022-12-08T06:29:20.729Z,3.97
2022-12-08T06:31:50.638Z,3.90
2022-12-08T06:34:19.946Z,3.50
2022-12-08T06:36:50.575Z,2.97
2022-12-08T06:39:21.728Z,3.63
2022-12-08T06:42:09.196Z,3.30
2022-12-08T06:44:39.459Z,3.53
2022-12-08T06:47:09.015Z,3.80
2022-12-08T06:49:38.821Z,3.60
2022-12-08T06:52:08.638Z,3.73
2022-12-08T06:54:41.015Z,3.87
2022-12-08T06:57:11.155Z,3.73
2022-12-08T06:59:41.091Z,3.83
2022-12-08T07:02:11.625Z,3.47
2022-12-08T07:04:42.495Z,4.00
2022-12-08T07:07:11.986Z,3.93
2022-12-08T07:09:42.924Z,4.27
2022-12-08T07:12:14.020Z,3.30
2022-12-08T07:14:44.012Z,4.43
2022-12-08T07:17:15.210Z,3.60
2022-12-08T07:19:44.606Z,3.57
2022-12-08T07:22:14.384Z,4.20
2022-12-08T07:24:45.958Z,4.10
2022-12-08T07:27:15.242Z,3.90
2022-12-08T07:29:45.091Z,3.87
2022-12-08T07:32:14.998Z,4.20
2022-12-08T07:34:47.272Z,3.90
2022-12-08T07:37:17.486Z,3.40
2022-12-08T07:39:49.325Z,3.57
2022-12-08T07:42:18.953Z,4.13
2022-12-08T07:44:49.539Z,4.47
2022-12-08T07:47:19.105Z,3.87
2022-12-08T07:49:49.045Z,3.77
2022-12-08T07:52:19.234Z,3.33
2022-12-08T07:54:49.363Z,4.00
2022-12-08T07:57:20.350Z,4.40
2022-12-08T07:59:50.316Z,3.43
2022-12-08T08:02:24.857Z,3.27
2022-12-08T08:04:55.771Z,3.43
2022-12-08T08:07:25.526Z,3.17
2022-12-08T08:09:56.092Z,3.27
2022-12-08T08:12:33.504Z,3.37
2022-12-08T08:15:04.039Z,3.93
2022-12-08T08:17:34.276Z,3.60
2022-12-08T08:20:07.210Z,3.43
2022-12-08T08:22:37.787Z,3.60
2022-12-08T08:25:12.024Z,3.77
2022-12-08T08:27:42.759Z,3.80
2022-12-08T08:30:20.085Z,3.80
2022-12-08T08:32:50.503Z,4.37
2022-12-08T08:35:20.029Z,3.23
2022-12-08T08:37:49.836Z,3.50
2022-12-08T08:40:21.243Z,2.90
2022-12-08T08:42:52.458Z,3.40
2022-12-08T08:45:22.239Z,3.03
2022-12-08T08:47:52.486Z,2.50
2022-12-08T08:50:22.442Z,3.40
2022-12-08T08:52:52.143Z,2.80
2022-12-08T08:55:23.764Z,3.10
2022-12-08T08:57:53.756Z,2.97
2022-12-08T09:00:25.295Z,3.30
2022-12-08T09:02:54.937Z,3.60
2022-12-08T09:05:26.270Z,3.40
2022-12-08T09:07:57.335Z,3.93
2022-12-08T09:10:28.365Z,2.93
2022-12-08T09:12:57.830Z,3.10
2022-12-08T09:15:27.868Z,2.77
2022-12-08T09:17:56.827Z,3.20
2022-12-08T09:20:27.628Z,2.77
2022-12-08T09:22:56.348Z,3.47
2022-12-08T09:25:27.266Z,3.10
2022-12-08T09:27:57.279Z,3.23
2022-12-08T09:30:28.322Z,3.50
2022-12-08T09:32:58.020Z,3.77
2022-12-08T09:35:26.508Z,3.50
2022-12-08T09:37:57.213Z,3.57
2022-12-08T09:40:31.509Z,3.97
2022-12-08T09:43:11.965Z,4.63
2022-12-08T09:45:42.356Z,3.53
2022-12-08T09:48:20.936Z,4.13
2022-12-08T09:50:56.774Z,3.80
2022-12-08T09:53:35.330Z,3.53
2022-12-08T09:56:16.096Z,3.60
2022-12-08T09:58:53.877Z,4.43
2022-12-08T10:01:29.593Z,4.40
2022-12-08T10:03:59.510Z,4.57
2022-12-08T10:06:34.976Z,3.93
2022-12-08T10:09:29.813Z,4.67
2022-12-08T10:12:12.395Z,4.27
2022-12-08T10:14:45.785Z,4.30
2022-12-08T10:17:24.043Z,4.40
2022-12-08T10:20:02.178Z,4.30
2022-12-08T10:22:42.904Z,4.43
2022-12-08T10:25:20.840Z,4.40
2022-12-08T10:27:55.350Z,4.53
2022-12-08T10:30:24.573Z,4.33
2022-12-08T10:32:56.246Z,4.63
2022-12-08T10:35:27.227Z,3.70
2022-12-08T10:38:01.629Z,3.63
2022-12-08T10:40:43.853Z,3.90
2022-12-08T10:43:23.429Z,4.10
2022-12-08T10:45:53.394Z,4.67
2022-12-08T10:48:28.420Z,3.90
2022-12-08T10:51:00.673Z,3.70
2022-12-08T10:53:32.509Z,3.70
2022-12-08T10:56:16.356Z,3.13
2022-12-08T10:58:49.441Z,3.70
2022-12-08T11:01:25.750Z,3.60
2022-12-08T11:04:00.630Z,3.53
2022-12-08T11:06:37.828Z,2.70
2022-12-08T11:09:25.060Z,3.17
2022-12-08T11:11:58.768Z,3.80
2022-12-08T11:14:31.885Z,2.73
2022-12-08T11:17:10.054Z,2.30
2022-12-08T11:19:40.673Z,2.47
2022-12-08T11:22:26.877Z,2.97
2022-12-08T11:25:03.762Z,2.47
2022-12-08T11:27:37.841Z,3.07
2022-12-08T11:30:18.743Z,2.40
2022-12-08T11:32:51.020Z,2.70
2022-12-08T11:35:28.539Z,2.93
2022-12-08T11:38:20.632Z,2.83
2022-12-08T11:40:57.253Z,2.97
2022-12-08T11:43:41.638Z,2.30
2022-12-08T11:46:21.829Z,2.87
2022-12-08T11:49:05.597Z,3.77
2022-12-08T11:51:40.766Z,2.80
2022-12-08T11:54:25.729Z,3.50
2022-12-08T11:56:59.351Z,2.47
2022-12-08T11:59:34.415Z,3.00
2022-12-08T12:02:07.854Z,2.80
2022-12-08T12:04:46.055Z,2.13
2022-12-08T12:08:06.030Z,2.70
2022-12-08T12:11:00.707Z,3.10
2022-12-08T12:14:07.845Z,2.97
2022-12-08T12:16:57.800Z,2.83
2022-12-08T12:19:32.454Z,3.40
2022-12-08T12:22:14.415Z,2.83
2022-12-08T12:24:48.012Z,3.00
2022-12-08T12:27:33.999Z,2.70
2022-12-08T12:30:09.741Z,3.03
2022-12-08T12:32:52.642Z,2.40
2022-12-08T12:35:35.700Z,2.40
2022-12-08T12:38:31.085Z,3.60
2022-12-08T12:41:05.137Z,2.70
2022-12-08T12:43:37.721Z,3.00
2022-12-08T12:46:54.570Z,3.50
2022-12-08T12:50:09.698Z,3.20
2022-12-08T12:52:45.743Z,3.00
2022-12-08T12:55:55.598Z,2.37
2022-12-08T12:58:42.543Z,3.00
2022-12-08T13:01:58.842Z,2.53
2022-12-08T13:04:39.520Z,3.03
2022-12-08T13:07:09.770Z,2.80
2022-12-08T13:09:42.405Z,2.40
2022-12-08T13:12:21.590Z,3.33
2022-12-08T13:14:55.816Z,2.40
2022-12-08T13:17:32.160Z,2.83
2022-12-08T13:20:07.252Z,2.20
2022-12-08T13:23:12.326Z,3.03
2022-12-08T13:25:54.577Z,2.73
2022-12-08T13:28:31.026Z,2.40
2022-12-08T13:31:02.439Z,2.37
2022-12-08T13:33:38.986Z,2.67
2022-12-08T13:36:24.141Z,2.30
2022-12-08T13:38:59.260Z,2.63
2022-12-08T13:41:39.968Z,3.20
2022-12-08T13:45:18.649Z,3.50
2022-12-08T13:47:39.144Z,4.30
2022-12-08T13:51:07.005Z,3.50
2022-12-08T13:59:28.181Z,2.90
2022-12-08T14:02:02.813Z,2.47
2022-12-08T14:07:21.777Z,2.50
2022-12-08T14:09:51.279Z,2.67
2022-12-08T14:12:24.377Z,2.07
2022-12-08T14:15:03.815Z,2.43
2022-12-08T14:17:54.208Z,2.13
2022-12-08T14:20:27.007Z,2.43
2022-12-08T14:22:58.534Z,2.60
2022-12-08T14:25:29.625Z,2.50
2022-12-08T14:28:03.462Z,2.73
2022-12-08T14:30:38.019Z,2.70
2022-12-08T14:33:14.176Z,3.00
2022-12-08T14:35:43.551Z,3.13
2022-12-08T14:38:17.216Z,2.83
2022-12-08T14:40:48.070Z,2.90
2022-12-08T14:43:20.978Z,2.87
2022-12-08T14:45:55.601Z,2.77
2022-12-08T14:48:29.373Z,2.53
2022-12-08T14:51:33.498Z,2.17
2022-12-08T14:54:07.839Z,2.63
2022-12-08T14:56:42.358Z,2.27
2022-12-08T14:59:17.420Z,2.60
2022-12-08T15:01:51.031Z,2.90
2022-12-08T15:04:26.862Z,2.73
2022-12-08T15:07:08.797Z,2.30
2022-12-08T15:09:42.240Z,2.60
2022-12-08T15:12:27.330Z,3.17
2022-12-08T15:15:02.841Z,2.07
2022-12-08T15:17:43.063Z,2.73
2022-12-08T15:20:35.293Z,3.20
2022-12-08T15:23:06.288Z,2.57
2022-12-08T15:25:36.656Z,2.40
2022-12-08T15:28:08.018Z,2.20
2022-12-08T15:30:38.066Z,2.00
2022-12-08T15:33:09.473Z,2.70
2022-12-08T15:35:40.961Z,2.43
2022-12-08T15:38:24.905Z,2.43
2022-12-08T15:40:55.385Z,2.70
2022-12-08T15:43:25.339Z,1.97
2022-12-08T15:46:00.384Z,2.60
2022-12-08T15:48:32.324Z,2.43
2022-12-08T15:51:01.381Z,2.03
2022-12-08T15:53:31.086Z,3.03
2022-12-08T15:56:27.031Z,2.00
2022-12-08T15:58:55.713Z,2.10
2022-12-08T16:01:27.606Z,2.13
2022-12-08T16:07:20.168Z,2.03
2022-12-08T16:09:43.198Z,2.30
2022-12-08T16:13:26.764Z,2.30
2022-12-08T16:18:24.119Z,2.27
2022-12-08T16:21:31.575Z,2.43
2022-12-08T16:23:46.463Z,2.30
2022-12-08T16:29:08.719Z,2.90
2022-12-08T16:31:38.590Z,2.83
2022-12-08T16:34:08.015Z,2.73
2022-12-08T16:36:42.394Z,2.80
2022-12-08T16:39:14.925Z,2.83
2022-12-08T16:42:01.773Z,2.73
2022-12-08T16:44:31.494Z,2.70
2022-12-08T16:47:09.882Z,2.27
2022-12-08T16:49:39.385Z,2.63
2022-12-08T16:52:10.921Z,3.20
2022-12-08T16:54:39.599Z,3.07
2022-12-08T16:57:09.130Z,2.70
2022-12-08T16:59:41.059Z,2.23
2022-12-08T17:02:16.210Z,2.90
2022-12-08T17:04:47.379Z,3.13
2022-12-08T17:07:18.159Z,3.07
2022-12-08T17:09:47.168Z,3.00
2022-12-08T17:12:18.034Z,3.00
2022-12-08T17:14:54.389Z,3.23
2022-12-08T17:17:25.621Z,3.93
2022-12-08T17:19:56.275Z,3.30
2022-12-08T17:22:26.459Z,2.90
2022-12-08T17:24:55.813Z,2.30
2022-12-08T17:27:24.274Z,3.70
2022-12-08T17:29:53.816Z,3.00
2022-12-08T17:32:22.811Z,3.40
2022-12-08T17:34:51.764Z,3.10
2022-12-08T17:37:21.559Z,3.97
2022-12-08T17:39:51.336Z,3.70
2022-12-08T17:42:25.890Z,3.20
2022-12-08T17:44:54.423Z,3.83
2022-12-08T17:47:23.784Z,4.40
2022-12-08T17:49:53.749Z,4.20
2022-12-08T17:52:22.878Z,4.00
2022-12-08T17:54:53.398Z,2.90
2022-12-08T17:57:23.333Z,3.50
2022-12-08T17:59:53.201Z,3.00
2022-12-08T18:02:22.399Z,23.47
2022-12-08T18:04:52.601Z,5.63
2022-12-08T18:07:22.615Z,4.60
2022-12-08T18:09:53.581Z,6.17
2022-12-08T18:12:23.966Z,4.00
2022-12-08T18:14:53.165Z,4.40
2022-12-08T18:17:22.617Z,3.63
2022-12-08T18:19:52.200Z,4.13
2022-12-08T18:22:21.781Z,4.63
2022-12-08T18:24:52.709Z,4.03
2022-12-08T18:27:21.713Z,3.70
2022-12-08T18:29:50.674Z,3.33
2022-12-08T18:32:23.570Z,5.20
2022-12-08T18:34:52.108Z,4.23
2022-12-08T18:37:20.774Z,4.33
2022-12-08T18:39:49.598Z,4.90
2022-12-08T18:42:28.270Z,8.80
2022-12-08T18:45:03.034Z,7.30
2022-12-08T18:47:33.156Z,4.47
2022-12-08T18:50:03.451Z,3.90
2022-12-08T18:52:33.065Z,3.80
2022-12-08T18:55:07.021Z,3.50
2022-12-08T18:57:39.547Z,3.77
2022-12-08T19:00:12.881Z,4.67
2022-12-08T19:02:42.122Z,5.20
2022-12-08T19:05:14.006Z,4.37
2022-12-08T19:07:43.827Z,3.63
2022-12-08T19:10:13.770Z,3.70
2022-12-08T19:12:45.224Z,4.10
2022-12-08T19:15:14.377Z,3.90
2022-12-08T19:17:43.379Z,3.70
2022-12-08T19:20:14.804Z,4.07
2022-12-08T19:22:44.999Z,4.07
2022-12-08T19:25:14.524Z,4.40
2022-12-08T19:27:45.995Z,4.37
2022-12-08T19:30:17.708Z,4.57
2022-12-08T19:32:47.119Z,5.17
2022-12-08T19:35:16.878Z,4.47
2022-12-08T19:37:45.802Z,5.60
2022-12-08T19:40:33.751Z,5.00
2022-12-08T19:43:22.023Z,4.93
2022-12-08T19:45:50.941Z,4.63
2022-12-08T19:48:20.795Z,5.00
2022-12-08T19:50:49.338Z,5.10
2022-12-08T19:53:20.120Z,4.30
2022-12-08T19:55:49.955Z,5.10
2022-12-08T19:58:21.202Z,5.33
2022-12-08T20:00:50.877Z,4.63
2022-12-08T20:03:23.138Z,8.70
2022-12-08T20:05:54.018Z,9.00
2022-12-08T20:08:24.091Z,7.80
2022-12-08T20:10:56.070Z,6.17
2022-12-08T20:13:45.955Z,6.43
2022-12-08T20:16:16.793Z,5.30
2022-12-08T20:18:47.776Z,5.73
2022-12-08T20:21:17.796Z,5.60
2022-12-08T20:23:49.689Z,4.80
2022-12-08T20:26:22.036Z,5.83
2022-12-08T20:28:52.862Z,5.20
2022-12-08T20:31:24.932Z,6.23
2022-12-08T20:33:53.995Z,5.63
2022-12-08T20:36:23.791Z,6.07
2022-12-08T20:38:54.438Z,4.80
2022-12-08T20:41:28.261Z,5.00
2022-12-08T20:44:00.133Z,5.93
2022-12-08T20:46:30.212Z,5.70
2022-12-08T20:49:01.535Z,5.40
2022-12-08T20:51:32.245Z,5.77
2022-12-08T20:54:02.442Z,5.73
2022-12-08T20:56:32.780Z,6.30
2022-12-08T20:59:03.901Z,6.27
2022-12-08T21:01:33.181Z,6.77
2022-12-08T21:04:03.032Z,5.40
2022-12-08T21:06:33.345Z,5.63
2022-12-08T21:09:02.909Z,7.40
2022-12-08T21:11:33.224Z,6.03
2022-12-08T21:14:03.930Z,7.13
2022-12-08T21:16:33.512Z,6.47
2022-12-08T21:19:02.992Z,6.80
2022-12-08T21:21:31.991Z,7.57
2022-12-08T21:24:01.132Z,7.17
2022-12-08T21:26:30.714Z,7.13
2022-12-08T21:29:00.912Z,6.13
2022-12-08T21:31:33.636Z,6.80
2022-12-08T21:34:04.124Z,6.77
2022-12-08T21:36:34.047Z,6.97
2022-12-08T21:39:04.393Z,6.37
2022-12-08T21:41:51.325Z,6.20
2022-12-08T21:44:20.578Z,6.40
2022-12-08T21:46:52.175Z,7.20
2022-12-08T21:49:21.132Z,6.30
2022-12-08T21:51:50.140Z,7.50
2022-12-08T21:54:19.647Z,6.43
2022-12-08T21:56:50.415Z,6.67
2022-12-08T21:59:20.996Z,6.37
2022-12-08T22:01:52.545Z,7.03
2022-12-08T22:04:24.651Z,6.00
2022-12-08T22:06:54.496Z,6.67
2022-12-08T22:09:23.286Z,6.30
2022-12-08T22:11:53.398Z,7.00
2022-12-08T22:14:22.471Z,6.93
2022-12-08T22:16:52.972Z,7.40
2022-12-08T22:19:24.440Z,7.50
2022-12-08T22:21:54.773Z,5.93
2022-12-08T22:24:23.728Z,8.10
2022-12-08T22:26:52.939Z,7.50
2022-12-08T22:29:22.555Z,6.27
2022-12-08T22:31:53.090Z,7.07
2022-12-08T22:34:22.065Z,6.37
2022-12-08T22:36:51.477Z,7.30
2022-12-08T22:39:20.599Z,6.60
2022-12-08T22:41:50.124Z,6.30
2022-12-08T22:44:20.485Z,6.50
2022-12-08T22:46:50.265Z,7.10
2022-12-08T22:49:20.197Z,6.60
2022-12-08T22:51:48.594Z,6.33
2022-12-08T22:54:17.995Z,7.30
2022-12-08T22:56:46.933Z,7.80
2022-12-08T22:59:15.552Z,7.23
2022-12-08T23:01:45.377Z,6.60
2022-12-08T23:04:17.664Z,6.80
2022-12-08T23:06:48.564Z,7.07
2022-12-08T23:09:19.602Z,7.07
2022-12-08T23:11:48.751Z,6.47
2022-12-08T23:14:18.904Z,7.50
2022-12-08T23:16:48.708Z,8.20
2022-12-08T23:19:17.538Z,8.03
2022-12-08T23:21:47.920Z,7.13
2022-12-08T23:24:16.844Z,6.90
2022-12-08T23:26:46.359Z,6.30
2022-12-08T23:29:16.010Z,6.90
2022-12-08T23:31:44.777Z,6.03
2022-12-08T23:34:14.500Z,6.80
2022-12-08T23:36:44.417Z,6.73
2022-12-08T23:39:15.219Z,8.13
2022-12-08T23:41:45.757Z,6.70
2022-12-08T23:44:14.401Z,7.33
2022-12-08T23:46:42.922Z,7.47
2022-12-08T23:49:12.437Z,7.83
2022-12-08T23:51:43.041Z,7.27
2022-12-08T23:54:14.647Z,8.13
2022-12-08T23:56:43.647Z,7.17
2022-12-08T23:59:13.639Z,6.77
